EZY23ZC EGPF-LPFR
Flight info
| Callsign | EZY23ZC |
|---|---|
| Flight time | N/A |
| Altitude | 36000 |
| Route | NORBO L186 TRN DCT BLACA DCT NIMAT DCT DAP DCT KOMER DCT TUVEN/M076F360 DCT LASNO T9 BEGAS/N0444F360 DCT PINEK/N0439F370 DCT ALAGU |
| Aircraft | A320/M-SDE3FGHIRWY/LB1 |
Departure
| Time | 2026-05-04 15:40 |
|---|---|
| Airport | Glasgow Airport (EGPF) |
Arrival
| Time | N/A |
|---|---|
| Airport | Faro - Gago Coutinho International Airport (LPFR) |
| Time | Latitude | Longitude | Altitude | Speed | Heading |
|---|---|---|---|---|---|
| 2026-05-04 15:08 | 55.86423 | -4.43745 | 29 ft | 0 kts | 62° |
| 2026-05-04 15:30 | 55.86404 | -4.43802 | 29 ft | 4 kts | 53° |
| 2026-05-04 15:30 | 55.86355 | -4.43847 | 29 ft | 1 kts | 332° |
| 2026-05-04 15:31 | 55.86356 | -4.43848 | 29 ft | 0 kts | 332° |
| 2026-05-04 15:31 | 55.86357 | -4.43849 | 29 ft | 0 kts | 332° |
| 2026-05-04 15:32 | 55.86360 | -4.43852 | 29 ft | 0 kts | 332° |
| 2026-05-04 15:34 | 55.86366 | -4.43858 | 29 ft | 4 kts | 332° |
| 2026-05-04 15:34 | 55.86499 | -4.43984 | 29 ft | 14 kts | 332° |
| 2026-05-04 15:35 | 55.86660 | -4.43893 | 29 ft | 14 kts | 47° |
| 2026-05-04 15:35 | 55.86724 | -4.43766 | 29 ft | 17 kts | 57° |
| 2026-05-04 15:35 | 55.86766 | -4.43534 | 29 ft | 20 kts | 74° |
| 2026-05-04 15:36 | 55.86837 | -4.43098 | 29 ft | 17 kts | 73° |
| 2026-05-04 15:36 | 55.86874 | -4.42962 | 29 ft | 10 kts | 36° |
| 2026-05-04 15:36 | 55.86934 | -4.42908 | 29 ft | 9 kts | 26° |
| 2026-05-04 15:37 | 55.86987 | -4.42864 | 29 ft | 8 kts | 24° |
| 2026-05-04 15:37 | 55.87059 | -4.42812 | 29 ft | 18 kts | 20° |
| 2026-05-04 15:37 | 55.87203 | -4.42716 | 29 ft | 24 kts | 22° |
| 2026-05-04 15:37 | 55.87358 | -4.42612 | 29 ft | 23 kts | 21° |
| 2026-05-04 15:38 | 55.87473 | -4.42434 | 29 ft | 23 kts | 46° |
| 2026-05-04 15:38 | 55.87587 | -4.42221 | 29 ft | 25 kts | 46° |
| 2026-05-04 15:38 | 55.87708 | -4.41997 | 29 ft | 24 kts | 45° |
| 2026-05-04 15:38 | 55.87818 | -4.41855 | 29 ft | 14 kts | 11° |
| 2026-05-04 15:39 | 55.87844 | -4.41850 | 29 ft | 0 kts | 1° |
| 2026-05-04 15:39 | 55.87845 | -4.41850 | 29 ft | 2 kts | 1° |
| 2026-05-04 15:39 | 55.87914 | -4.41986 | 29 ft | 13 kts | 232° |
| 2026-05-04 15:40 | 55.87824 | -4.42156 | 29 ft | 33 kts | 227° |
| 2026-05-04 15:40 | 55.87475 | -4.42806 | 29 ft | 108 kts | 226° |
| 2026-05-04 15:40 | 55.86815 | -4.44033 | 57 ft | 161 kts | 232° |
| 2026-05-04 15:40 | 55.86058 | -4.45464 | 794 ft | 158 kts | 234° |
| 2026-05-04 15:41 | 55.85313 | -4.46930 | 1558 ft | 163 kts | 232° |
| 2026-05-04 15:41 | 55.84476 | -4.48473 | 1954 ft | 184 kts | 230° |
| 2026-05-04 15:41 | 55.83510 | -4.50175 | 2310 ft | 206 kts | 227° |
| 2026-05-04 15:41 | 55.82433 | -4.52053 | 2737 ft | 230 kts | 229° |
| 2026-05-04 15:42 | 55.81236 | -4.54144 | 3311 ft | 251 kts | 227° |
| 2026-05-04 15:42 | 55.79973 | -4.56349 | 4237 ft | 257 kts | 227° |
| 2026-05-04 15:42 | 55.78684 | -4.58595 | 5205 ft | 262 kts | 227° |
| 2026-05-04 15:42 | 55.77378 | -4.60873 | 6217 ft | 264 kts | 228° |
| 2026-05-04 15:43 | 55.76060 | -4.63174 | 7163 ft | 267 kts | 227° |
| 2026-05-04 15:43 | 55.74728 | -4.65506 | 8087 ft | 270 kts | 227° |
| 2026-05-04 15:43 | 55.73382 | -4.67857 | 9010 ft | 274 kts | 225° |
| 2026-05-04 15:43 | 55.71763 | -4.69698 | 9910 ft | 283 kts | 203° |
| 2026-05-04 15:44 | 55.69780 | -4.70471 | 10431 ft | 304 kts | 192° |
| 2026-05-04 15:44 | 55.67628 | -4.70992 | 10725 ft | 328 kts | 189° |
| 2026-05-04 15:44 | 55.65319 | -4.71461 | 11286 ft | 339 kts | 189° |
| 2026-05-04 15:44 | 55.62957 | -4.71906 | 12028 ft | 344 kts | 188° |
| 2026-05-04 15:45 | 55.60561 | -4.72355 | 12794 ft | 348 kts | 189° |
| 2026-05-04 15:45 | 55.58137 | -4.72827 | 13547 ft | 353 kts | 189° |
| 2026-05-04 15:45 | 55.55685 | -4.73321 | 14235 ft | 357 kts | 189° |
| 2026-05-04 15:45 | 55.53207 | -4.73834 | 14895 ft | 361 kts | 189° |
| 2026-05-04 15:46 | 55.50700 | -4.74363 | 15547 ft | 365 kts | 190° |
| 2026-05-04 15:46 | 55.48166 | -4.74901 | 16198 ft | 369 kts | 190° |
| 2026-05-04 15:46 | 55.45602 | -4.75442 | 16843 ft | 373 kts | 190° |
| 2026-05-04 15:46 | 55.43011 | -4.75984 | 17464 ft | 377 kts | 189° |
| 2026-05-04 15:47 | 55.40389 | -4.76529 | 18074 ft | 382 kts | 189° |
| 2026-05-04 15:47 | 55.37732 | -4.77080 | 18653 ft | 386 kts | 189° |
| 2026-05-04 15:47 | 55.35055 | -4.77632 | 19221 ft | 389 kts | 189° |
| 2026-05-04 15:47 | 55.32380 | -4.78372 | 19778 ft | 389 kts | 198° |
| 2026-05-04 15:48 | 55.29841 | -4.80017 | 20334 ft | 390 kts | 205° |
| 2026-05-04 15:48 | 55.27321 | -4.81821 | 20925 ft | 392 kts | 205° |
| 2026-05-04 15:48 | 55.22245 | -4.85504 | 22018 ft | 397 kts | 205° |
| 2026-05-04 15:49 | 55.19687 | -4.87373 | 22550 ft | 400 kts | 205° |
| 2026-05-04 15:49 | 55.17107 | -4.89259 | 23063 ft | 403 kts | 205° |
| 2026-05-04 15:49 | 55.14511 | -4.91151 | 23534 ft | 406 kts | 204° |
| 2026-05-04 15:49 | 55.11892 | -4.93057 | 23944 ft | 410 kts | 204° |
| 2026-05-04 15:50 | 55.09248 | -4.94976 | 24345 ft | 413 kts | 204° |
| 2026-05-04 15:50 | 55.06621 | -4.96873 | 24735 ft | 415 kts | 204° |
| 2026-05-04 15:50 | 55.03905 | -4.98830 | 25151 ft | 418 kts | 204° |
| 2026-05-04 15:50 | 55.01246 | -5.00748 | 25543 ft | 421 kts | 204° |
| 2026-05-04 15:51 | 54.98534 | -5.02703 | 25933 ft | 423 kts | 204° |
| 2026-05-04 15:51 | 54.95805 | -5.04670 | 26329 ft | 426 kts | 204° |
| 2026-05-04 15:51 | 54.93056 | -5.06649 | 26707 ft | 428 kts | 204° |
| 2026-05-04 15:51 | 54.90294 | -5.08635 | 27077 ft | 431 kts | 204° |
| 2026-05-04 15:52 | 54.87508 | -5.10634 | 27381 ft | 435 kts | 204° |
| 2026-05-04 15:52 | 54.84696 | -5.12647 | 27714 ft | 439 kts | 204° |
| 2026-05-04 15:52 | 54.81865 | -5.14671 | 28071 ft | 442 kts | 204° |
| 2026-05-04 15:52 | 54.79012 | -5.16705 | 28431 ft | 444 kts | 204° |
| 2026-05-04 15:53 | 54.76147 | -5.18743 | 28784 ft | 447 kts | 204° |
| 2026-05-04 15:53 | 54.73261 | -5.20790 | 29139 ft | 449 kts | 204° |
| 2026-05-04 15:53 | 54.70362 | -5.22845 | 29477 ft | 452 kts | 204° |
| 2026-05-04 15:53 | 54.67446 | -5.24912 | 29790 ft | 454 kts | 204° |
| 2026-05-04 15:54 | 54.64512 | -5.26989 | 30108 ft | 457 kts | 204° |
| 2026-05-04 15:54 | 54.61563 | -5.29074 | 30331 ft | 460 kts | 204° |
| 2026-05-04 15:54 | 54.58592 | -5.31169 | 30601 ft | 462 kts | 204° |
| 2026-05-04 15:54 | 54.55620 | -5.33261 | 31012 ft | 461 kts | 204° |
| 2026-05-04 15:55 | 54.52659 | -5.35342 | 31421 ft | 459 kts | 204° |
| 2026-05-04 15:55 | 54.49707 | -5.37416 | 31832 ft | 457 kts | 204° |
| 2026-05-04 15:55 | 54.46766 | -5.39481 | 32254 ft | 456 kts | 204° |
| 2026-05-04 15:55 | 54.43836 | -5.41530 | 32665 ft | 454 kts | 203° |
| 2026-05-04 15:56 | 54.40914 | -5.43566 | 33070 ft | 453 kts | 203° |
| 2026-05-04 15:56 | 54.37995 | -5.45597 | 33489 ft | 451 kts | 203° |
| 2026-05-04 15:56 | 54.35133 | -5.47590 | 33854 ft | 451 kts | 202° |
| 2026-05-04 15:56 | 54.32254 | -5.49595 | 34188 ft | 451 kts | 202° |
| 2026-05-04 15:57 | 54.29352 | -5.51618 | 34516 ft | 450 kts | 202° |
| 2026-05-04 15:57 | 54.26455 | -5.53636 | 34821 ft | 450 kts | 202° |
| 2026-05-04 15:57 | 54.23558 | -5.55648 | 35124 ft | 449 kts | 202° |
| 2026-05-04 15:57 | 54.20663 | -5.57649 | 35414 ft | 449 kts | 202° |
| 2026-05-04 15:58 | 54.17767 | -5.59645 | 35696 ft | 448 kts | 202° |
| 2026-05-04 15:58 | 54.14875 | -5.61631 | 35969 ft | 448 kts | 202° |
| 2026-05-04 15:58 | 54.09090 | -5.65604 | 36083 ft | 449 kts | 202° |
| 2026-05-04 15:59 | 54.03287 | -5.69584 | 36082 ft | 450 kts | 202° |
| 2026-05-04 15:59 | 53.97476 | -5.73581 | 36086 ft | 450 kts | 204° |
| 2026-05-04 16:00 | 53.92055 | -5.78889 | 36083 ft | 450 kts | 212° |
| 2026-05-04 16:00 | 53.86725 | -5.84474 | 36084 ft | 450 kts | 212° |
| 2026-05-04 16:01 | 53.81385 | -5.90043 | 36081 ft | 451 kts | 211° |
| 2026-05-04 16:01 | 53.76034 | -5.95612 | 36072 ft | 452 kts | 211° |
| 2026-05-04 16:02 | 53.70670 | -6.01183 | 36075 ft | 453 kts | 211° |
| 2026-05-04 16:03 | 53.62598 | -6.09516 | 36070 ft | 454 kts | 211° |
| 2026-05-04 16:03 | 53.57209 | -6.15074 | 36083 ft | 454 kts | 211° |
| 2026-05-04 16:04 | 53.51852 | -6.20587 | 36063 ft | 455 kts | 211° |
| 2026-05-04 16:04 | 53.43731 | -6.28882 | 36061 ft | 456 kts | 210° |
| 2026-05-04 16:05 | 53.38267 | -6.34277 | 36060 ft | 456 kts | 208° |
| 2026-05-04 16:06 | 53.29921 | -6.41964 | 36077 ft | 457 kts | 208° |
| 2026-05-04 16:07 | 53.18793 | -6.52232 | 36074 ft | 457 kts | 208° |
| 2026-05-04 16:08 | 53.07685 | -6.62516 | 36055 ft | 457 kts | 208° |
| 2026-05-04 16:09 | 52.93752 | -6.75294 | 36045 ft | 458 kts | 207° |
| 2026-05-04 16:10 | 52.82581 | -6.85370 | 36049 ft | 459 kts | 206° |
| 2026-05-04 16:11 | 52.71061 | -6.94468 | 36047 ft | 459 kts | 203° |
| 2026-05-04 16:12 | 52.53776 | -7.08131 | 36055 ft | 460 kts | 204° |
| 2026-05-04 16:13 | 52.42216 | -7.17228 | 36057 ft | 461 kts | 204° |
| 2026-05-04 16:14 | 52.30624 | -7.26310 | 36070 ft | 462 kts | 203° |
| 2026-05-04 16:16 | 52.16132 | -7.37572 | 36071 ft | 464 kts | 203° |
| 2026-05-04 16:17 | 52.01549 | -7.48830 | 36070 ft | 464 kts | 203° |
| 2026-05-04 16:18 | 51.89864 | -7.57794 | 36052 ft | 465 kts | 203° |
| 2026-05-04 16:19 | 51.75230 | -7.68936 | 36074 ft | 465 kts | 203° |
| 2026-05-04 16:20 | 51.60574 | -7.80006 | 36053 ft | 466 kts | 203° |
| 2026-05-04 16:22 | 51.46864 | -7.90302 | 36069 ft | 467 kts | 203° |
| 2026-05-04 16:23 | 51.29214 | -8.03479 | 36086 ft | 466 kts | 203° |
| 2026-05-04 16:25 | 51.11603 | -8.16485 | 36048 ft | 465 kts | 203° |
| 2026-05-04 16:26 | 50.90387 | -8.28150 | 36057 ft | 461 kts | 189° |
| 2026-05-04 16:28 | 50.74673 | -8.33279 | 36058 ft | 461 kts | 189° |
| 2026-05-04 16:29 | 50.52712 | -8.40389 | 36058 ft | 462 kts | 189° |
| 2026-05-04 16:31 | 50.36956 | -8.45446 | 36043 ft | 463 kts | 189° |
| 2026-05-04 16:32 | 50.18020 | -8.51476 | 36061 ft | 463 kts | 189° |
| 2026-05-04 16:33 | 50.05396 | -8.55469 | 36062 ft | 463 kts | 189° |
| 2026-05-04 16:34 | 49.95921 | -8.58442 | 36059 ft | 463 kts | 189° |
| 2026-05-04 16:35 | 49.76995 | -8.64366 | 36037 ft | 463 kts | 190° |
| 2026-05-04 16:36 | 49.67524 | -8.67324 | 36026 ft | 463 kts | 190° |
| 2026-05-04 16:37 | 49.58042 | -8.70248 | 36032 ft | 463 kts | 190° |
| 2026-05-04 16:38 | 49.45443 | -8.74135 | 36029 ft | 464 kts | 190° |
| 2026-05-04 16:39 | 49.29636 | -8.78980 | 36038 ft | 463 kts | 190° |
| 2026-05-04 16:40 | 49.17006 | -8.82833 | 36034 ft | 462 kts | 190° |
| 2026-05-04 16:41 | 49.01262 | -8.87614 | 36027 ft | 462 kts | 190° |
| 2026-05-04 16:43 | 48.85487 | -8.92352 | 36027 ft | 462 kts | 190° |
| 2026-05-04 16:43 | 48.76026 | -8.95193 | 36027 ft | 462 kts | 190° |
| 2026-05-04 16:45 | 48.57131 | -9.00021 | 36019 ft | 458 kts | 179° |
| 2026-05-04 16:46 | 48.41192 | -9.00005 | 36014 ft | 458 kts | 179° |
| 2026-05-04 16:47 | 48.28426 | -9.00005 | 36032 ft | 459 kts | 179° |
| 2026-05-04 16:48 | 48.15676 | -9.00019 | 36031 ft | 458 kts | 179° |
| 2026-05-04 16:49 | 48.02946 | -9.00009 | 36032 ft | 457 kts | 179° |
| 2026-05-04 16:50 | 47.90227 | -9.00011 | 36027 ft | 457 kts | 179° |
| 2026-05-04 16:51 | 47.80729 | -9.00010 | 36031 ft | 457 kts | 179° |
| 2026-05-04 16:52 | 47.68019 | -9.00013 | 36021 ft | 456 kts | 179° |
| 2026-05-04 16:53 | 47.58497 | -8.99997 | 36024 ft | 456 kts | 179° |
| 2026-05-04 16:54 | 47.45801 | -9.00023 | 36015 ft | 456 kts | 179° |
| 2026-05-04 16:55 | 47.26757 | -8.99999 | 36013 ft | 456 kts | 179° |
| 2026-05-04 16:56 | 47.10926 | -9.00008 | 36013 ft | 456 kts | 179° |
| 2026-05-04 16:57 | 47.01404 | -9.00015 | 36013 ft | 456 kts | 179° |
| 2026-05-04 16:58 | 46.88707 | -9.00009 | 36009 ft | 456 kts | 179° |
| 2026-05-04 17:00 | 46.69637 | -9.00009 | 35997 ft | 457 kts | 180° |
| 2026-05-04 17:01 | 46.53711 | -9.00006 | 36009 ft | 458 kts | 180° |
| 2026-05-04 17:02 | 46.40972 | -9.00006 | 36008 ft | 458 kts | 180° |
| 2026-05-04 17:03 | 46.31458 | -9.00016 | 36012 ft | 458 kts | 180° |
| 2026-05-04 17:03 | 46.21909 | -9.00019 | 36010 ft | 458 kts | 180° |
| 2026-05-04 17:04 | 46.09177 | -9.00011 | 36014 ft | 457 kts | 180° |
| 2026-05-04 17:05 | 45.96447 | -9.00011 | 36019 ft | 457 kts | 180° |
| 2026-05-04 17:06 | 45.86906 | -9.00013 | 36018 ft | 457 kts | 180° |
| 2026-05-04 17:07 | 45.78442 | -9.00016 | 36019 ft | 457 kts | 180° |
| 2026-05-04 17:07 | 45.71014 | -9.00012 | 36021 ft | 456 kts | 180° |
| 2026-05-04 17:08 | 45.61489 | -9.00006 | 36015 ft | 456 kts | 180° |
| 2026-05-04 17:09 | 45.55183 | -9.00011 | 36010 ft | 456 kts | 181° |
| 2026-05-04 17:09 | 45.48828 | -9.00017 | 36006 ft | 457 kts | 181° |
| 2026-05-04 17:10 | 45.32907 | -9.00010 | 36013 ft | 458 kts | 181° |
| 2026-05-04 17:11 | 45.26541 | -9.00011 | 36021 ft | 457 kts | 181° |
| 2026-05-04 17:12 | 45.16990 | -9.00020 | 36015 ft | 457 kts | 181° |
| 2026-05-04 17:13 | 45.03036 | -8.93424 | 36012 ft | 457 kts | 126° |
| 2026-05-04 17:14 | 44.99318 | -8.81091 | 35996 ft | 457 kts | 109° |
| 2026-05-04 17:14 | 44.98254 | -8.76856 | 35999 ft | 458 kts | 109° |
| 2026-05-04 17:15 | 44.95024 | -8.64137 | 36002 ft | 459 kts | 109° |
| 2026-05-04 17:16 | 44.90675 | -8.47178 | 36007 ft | 460 kts | 110° |
| 2026-05-04 17:17 | 44.86307 | -8.30229 | 36012 ft | 460 kts | 110° |
| 2026-05-04 17:18 | 44.81908 | -8.13312 | 36017 ft | 460 kts | 110° |
| 2026-05-04 17:19 | 44.77493 | -7.96487 | 36012 ft | 459 kts | 110° |
| 2026-05-04 17:20 | 44.73048 | -7.79626 | 36022 ft | 459 kts | 110° |
| 2026-05-04 17:20 | 44.69703 | -7.66987 | 36006 ft | 460 kts | 111° |
| 2026-05-04 17:21 | 44.65164 | -7.50177 | 36007 ft | 459 kts | 111° |
| 2026-05-04 17:22 | 44.62905 | -7.41790 | 36002 ft | 459 kts | 111° |
| 2026-05-04 17:23 | 44.57870 | -7.25384 | 36005 ft | 458 kts | 123° |
| 2026-05-04 17:24 | 44.52788 | -7.14079 | 36003 ft | 456 kts | 123° |
| 2026-05-04 17:25 | 44.46003 | -6.99140 | 36005 ft | 456 kts | 123° |
| 2026-05-04 17:26 | 44.39180 | -6.84184 | 36003 ft | 457 kts | 124° |
| 2026-05-04 17:27 | 44.30628 | -6.65512 | 36013 ft | 456 kts | 124° |
| 2026-05-04 17:28 | 44.24292 | -6.50163 | 36008 ft | 458 kts | 117° |
| 2026-05-04 17:29 | 44.16401 | -6.25961 | 36014 ft | 458 kts | 117° |
| 2026-05-04 17:31 | 44.09632 | -6.05892 | 36012 ft | 458 kts | 117° |
| 2026-05-04 17:31 | 44.03943 | -5.95706 | 35166 ft | 444 kts | 153° |
| 2026-05-04 17:32 | 43.98140 | -5.93415 | 34123 ft | 434 kts | 181° |
| 2026-05-04 17:33 | 43.89266 | -5.95281 | 31786 ft | 430 kts | 193° |
| 2026-05-04 17:33 | 43.86330 | -5.96027 | 31029 ft | 428 kts | 193° |
| 2026-05-04 17:34 | 43.77606 | -5.98220 | 28632 ft | 422 kts | 193° |
| 2026-05-04 17:34 | 43.74718 | -5.98938 | 27804 ft | 422 kts | 192° |
| 2026-05-04 17:35 | 43.66058 | -6.01076 | 25455 ft | 425 kts | 192° |
| 2026-05-04 17:35 | 43.60201 | -6.02529 | 23988 ft | 430 kts | 191° |
| 2026-05-04 17:35 | 43.57250 | -6.03258 | 23223 ft | 432 kts | 191° |
| 2026-05-04 17:36 | 43.54338 | -6.04265 | 22386 ft | 433 kts | 201° |
| 2026-05-04 17:36 | 43.51707 | -6.06262 | 21577 ft | 434 kts | 217° |
| 2026-05-04 17:36 | 43.49579 | -6.09204 | 20802 ft | 437 kts | 232° |
| 2026-05-04 17:36 | 43.48138 | -6.12875 | 20034 ft | 437 kts | 248° |
| 2026-05-04 17:37 | 43.47505 | -6.16955 | 19281 ft | 436 kts | 264° |
| 2026-05-04 17:37 | 43.47555 | -6.19716 | 18783 ft | 436 kts | 274° |
| 2026-05-04 17:37 | 43.48757 | -6.24958 | 17739 ft | 421 kts | 296° |
| 2026-05-04 17:37 | 43.50441 | -6.28145 | 16936 ft | 404 kts | 311° |
| 2026-05-04 17:38 | 43.52553 | -6.30512 | 16161 ft | 392 kts | 325° |
| 2026-05-04 17:38 | 43.54994 | -6.32051 | 15403 ft | 382 kts | 340° |
| 2026-05-04 17:38 | 43.57571 | -6.32724 | 14646 ft | 372 kts | 351° |
| 2026-05-04 17:38 | 43.60098 | -6.33131 | 13908 ft | 362 kts | 356° |
| 2026-05-04 17:39 | 43.64090 | -6.31763 | 12565 ft | 352 kts | 28° |
| 2026-05-04 17:39 | 43.66001 | -6.29706 | 11784 ft | 346 kts | 46° |
| 2026-05-04 17:39 | 43.67348 | -6.27005 | 11022 ft | 340 kts | 64° |
| 2026-05-04 17:40 | 43.68047 | -6.23925 | 10284 ft | 334 kts | 82° |
| 2026-05-04 17:40 | 43.68070 | -6.20766 | 9508 ft | 327 kts | 99° |
| 2026-05-04 17:40 | 43.67458 | -6.17793 | 8710 ft | 319 kts | 116° |
| 2026-05-04 17:40 | 43.66311 | -6.15277 | 8031 ft | 309 kts | 133° |
| 2026-05-04 17:41 | 43.64787 | -6.13308 | 7575 ft | 292 kts | 142° |
| 2026-05-04 17:41 | 43.63380 | -6.11379 | 7126 ft | 281 kts | 126° |
| 2026-05-04 17:41 | 43.62401 | -6.09093 | 6680 ft | 272 kts | 116° |
| 2026-05-04 17:41 | 43.61717 | -6.06713 | 6223 ft | 263 kts | 110° |
| 2026-05-04 17:42 | 43.61120 | -6.04369 | 5757 ft | 255 kts | 110° |
| 2026-05-04 17:42 | 43.60545 | -6.02088 | 5296 ft | 249 kts | 110° |
| 2026-05-04 17:42 | 43.59981 | -5.99844 | 4840 ft | 246 kts | 110° |
| 2026-05-04 17:42 | 43.59420 | -5.97626 | 4363 ft | 244 kts | 110° |
| 2026-05-04 17:43 | 43.58860 | -5.95419 | 4046 ft | 242 kts | 110° |
| 2026-05-04 17:43 | 43.58305 | -5.93235 | 4002 ft | 237 kts | 110° |
| 2026-05-04 17:43 | 43.57772 | -5.91142 | 3881 ft | 228 kts | 110° |
| 2026-05-04 17:43 | 43.57248 | -5.89096 | 3667 ft | 224 kts | 110° |
| 2026-05-04 17:44 | 43.56727 | -5.87079 | 3470 ft | 222 kts | 110° |
| 2026-05-04 17:44 | 43.56208 | -5.85091 | 3258 ft | 218 kts | 110° |
| 2026-05-04 17:44 | 43.55691 | -5.83138 | 3088 ft | 216 kts | 110° |
| 2026-05-04 17:44 | 43.55112 | -5.81233 | 3008 ft | 216 kts | 127° |
| 2026-05-04 17:45 | 43.53930 | -5.80115 | 3021 ft | 204 kts | 172° |
| 2026-05-04 17:45 | 43.52642 | -5.80465 | 3018 ft | 186 kts | 220° |
| 2026-05-04 17:45 | 43.52043 | -5.81934 | 3037 ft | 177 kts | 265° |
| 2026-05-04 17:45 | 43.52083 | -5.83587 | 3012 ft | 168 kts | 278° |
| 2026-05-04 17:46 | 43.52209 | -5.85120 | 2994 ft | 154 kts | 275° |
| 2026-05-04 17:46 | 43.52389 | -5.86516 | 2850 ft | 143 kts | 285° |
| 2026-05-04 17:46 | 43.52661 | -5.87792 | 2645 ft | 139 kts | 287° |
| 2026-05-04 17:46 | 43.52946 | -5.89052 | 2452 ft | 136 kts | 287° |
| 2026-05-04 17:47 | 43.53234 | -5.90289 | 2267 ft | 135 kts | 287° |
| 2026-05-04 17:47 | 43.53523 | -5.91520 | 2077 ft | 135 kts | 288° |
| 2026-05-04 17:47 | 43.53816 | -5.92757 | 1896 ft | 136 kts | 288° |
| 2026-05-04 17:47 | 43.54112 | -5.94002 | 1724 ft | 136 kts | 288° |
| 2026-05-04 17:48 | 43.54408 | -5.95248 | 1519 ft | 138 kts | 288° |
| 2026-05-04 17:48 | 43.54706 | -5.96503 | 1327 ft | 137 kts | 288° |
| 2026-05-04 17:48 | 43.55002 | -5.97747 | 1117 ft | 136 kts | 289° |
| 2026-05-04 17:48 | 43.55296 | -5.98996 | 975 ft | 137 kts | 286° |
| 2026-05-04 17:49 | 43.55595 | -6.00258 | 772 ft | 139 kts | 288° |
| 2026-05-04 17:49 | 43.55894 | -6.01527 | 571 ft | 139 kts | 288° |
| 2026-05-04 17:49 | 43.56188 | -6.02776 | 426 ft | 129 kts | 289° |
| 2026-05-04 17:49 | 43.56423 | -6.03738 | 416 ft | 69 kts | 288° |
| 2026-05-04 17:50 | 43.56491 | -6.04034 | 413 ft | 18 kts | 283° |
| 2026-05-04 17:50 | 43.56486 | -6.04253 | 415 ft | 28 kts | 259° |
| 2026-05-04 17:50 | 43.56408 | -6.04345 | 420 ft | 17 kts | 125° |
| 2026-05-04 17:50 | 43.56364 | -6.04192 | 418 ft | 17 kts | 107° |
| 2026-05-04 17:51 | 43.56329 | -6.04042 | 420 ft | 16 kts | 108° |
| 2026-05-04 17:51 | 43.56296 | -6.03904 | 411 ft | 15 kts | 108° |
| 2026-05-04 17:51 | 43.56262 | -6.03760 | 413 ft | 18 kts | 107° |
| 2026-05-04 17:51 | 43.56216 | -6.03568 | 418 ft | 24 kts | 108° |
| 2026-05-04 17:52 | 43.56162 | -6.03342 | 415 ft | 24 kts | 109° |
| 2026-05-04 17:52 | 43.56118 | -6.03224 | 419 ft | 12 kts | 161° |
| 2026-05-04 17:52 | 43.56077 | -6.03243 | 419 ft | 4 kts | 223° |
| 2026-05-04 17:52 | 43.56071 | -6.03276 | 421 ft | 3 kts | 270° |
| 2026-05-04 17:53 | 43.56068 | -6.03292 | 419 ft | 1 kts | 231° |
| 2026-05-04 17:53 | 43.56061 | -6.03268 | 416 ft | 5 kts | 98° |
| 2026-05-04 17:53 | 43.56046 | -6.03175 | 414 ft | 15 kts | 107° |
| 2026-05-04 17:53 | 43.56016 | -6.03068 | 415 ft | 8 kts | 133° |
| 2026-05-04 17:54 | 43.55973 | -6.03075 | 415 ft | 5 kts | 196° |
| 2026-05-04 17:54 | 43.55964 | -6.03079 | 413 ft | 0 kts | 197° |